Terminal Aerodrome Forecast
Issued by NWS

Home | Current Version | Previous Version | Text Only | Print | Product List | Glossary On
Versions: 1 2 3 4 5 6 7 8 9 10 11 12 13 14 15 16 17 18
000
FTUS41 KGYX 311124
TAFPSM
TAF
KPSM 311124Z 3112/0112 VRB02KT P6SM BKN250
     FM311500 25008KT P6SM SCT250
     FM311800 22009G14KT P6SM SCT100 BKN250
     FM010000 23004KT P6SM BKN080
     FM010600 24004KT P6SM VCSH BKN050=

USA.gov is the U.S. government's official web portal to all federal, state and local government web resources and services.